Time;durP1;ratioP1;P1;durP2;ratioP2;P2;SDS_P1;SDS_P2;PMS_P1;PMS_P2;Temp;Humidity;BMP_temperature;BMP_pressure;BME280_temperature;BME280_humidity;BME280_pressure;Samples;Min_cycle;Max_cycle;Signal;HPM_P1;HPM_P2
2022/11/14 00:01:16;;;;;;;;;;;6.20;99.90;;;;;;5015897;28;19934;-81
2022/11/14 00:03:41;;;;;;;;;;;6.10;99.90;;;;;;5034572;28;19943;-80
2022/11/14 00:06:07;;;;;;;;;;;6.10;99.90;;;;;;5032000;28;19968;-80
2022/11/14 00:08:33;;;;;;;;;;;6.10;99.90;;;;;;5033754;28;19928;-79
2022/11/14 00:10:59;;;;;;;;;;;6.00;99.90;;;;;;5031744;28;19929;-80
2022/11/14 00:13:24;;;;;;;;;;;6.00;99.90;;;;;;5016615;28;19982;-79
2022/11/14 00:15:55;;;;;;;;;;;6.00;99.90;;;;;;5015632;28;20011;-81
2022/11/14 00:18:20;;;;;;;;;;;6.00;99.90;;;;;;5029930;28;19925;-80
2022/11/14 00:20:50;;;;;;;;;;;6.00;99.90;;;;;;5015962;28;19935;-80
2022/11/14 00:23:16;;;;;;;;;;;6.00;99.90;;;;;;5032400;28;19925;-80
2022/11/14 00:25:42;;;;;;;;;;;6.00;99.90;;;;;;5031724;28;20396;-80
2022/11/14 00:28:08;;;;;;;;;;;6.00;99.90;;;;;;5031268;28;19928;-81
2022/11/14 00:30:33;;;;;;;;;;;6.00;99.90;;;;;;5030545;28;20460;-81
2022/11/14 00:32:59;;;;;;;;;;;6.10;99.90;;;;;;5030217;28;20309;-81
2022/11/14 00:35:24;;;;;;;;;;;5.90;99.90;;;;;;5027219;28;19948;-81
2022/11/14 00:37:50;;;;;;;;;;;6.20;99.90;;;;;;5015179;28;19935;-80
2022/11/14 00:40:15;;;;;;;;;;;6.00;99.90;;;;;;5011733;28;19927;-80
2022/11/14 00:42:41;;;;;;;;;;;5.90;99.90;;;;;;5029540;28;19924;-80
2022/11/14 00:45:07;;;;;;;;;;;5.80;99.90;;;;;;5011444;28;20405;-80
2022/11/14 00:47:33;;;;;;;;;;;5.80;99.90;;;;;;5028711;28;19968;-80
2022/11/14 00:49:58;;;;;;;;;;;6.40;99.90;;;;;;4994790;28;19960;-80
2022/11/14 00:52:24;;;;;;;;;;;5.70;99.90;;;;;;5033518;28;19921;-80
2022/11/14 00:54:49;;;;;;;;;;;5.80;99.90;;;;;;5045479;28;19921;-81
2022/11/14 00:57:15;;;;;;;;;;;5.80;99.90;;;;;;4997672;28;19993;-80
2022/11/14 00:59:41;;;;;;;;;;;6.40;99.90;;;;;;5016427;28;19924;-80
2022/11/14 01:02:06;;;;;;;;;;;5.80;99.90;;;;;;5034627;28;20270;-80
2022/11/14 01:04:32;;;;;;;;;;;5.60;99.90;;;;;;5032822;28;19933;-80
2022/11/14 01:06:57;;;;;;;;;;;5.50;99.90;;;;;;5030295;28;19992;-81
2022/11/14 01:09:23;;;;;;;;;;;5.50;99.90;;;;;;5013909;28;20007;-80
2022/11/14 01:11:48;;;;;;;;;;;5.40;99.90;;;;;;5012853;28;19921;-80
2022/11/14 01:14:14;;;;;;;;;;;5.40;99.90;;;;;;5015512;28;19972;-80
2022/11/14 01:16:40;;;;;;;;;;;5.60;99.90;;;;;;5011637;28;19924;-80
2022/11/14 01:19:06;;;;;;;;;;;5.30;99.90;;;;;;5013700;28;19925;-80
2022/11/14 01:21:31;;;;;;;;;;;5.20;99.90;;;;;;5011762;28;19920;-80
2022/11/14 01:23:57;;;;;;;;;;;5.20;99.90;;;;;;5011580;28;19920;-80
2022/11/14 01:26:22;;;;;;;;;;;5.20;99.90;;;;;;4999213;28;20010;-81
2022/11/14 01:28:48;;;;;;;;;;;5.20;99.90;;;;;;5032954;28;19927;-79
2022/11/14 01:31:15;;;;;;;;;;;5.20;99.90;;;;;;5015121;28;19928;-80
2022/11/14 01:33:40;;;;;;;;;;;5.20;99.90;;;;;;5015855;28;20333;-80
2022/11/14 01:36:06;;;;;;;;;;;5.20;99.90;;;;;;5016523;28;19925;-80
2022/11/14 01:38:32;;;;;;;;;;;5.20;99.90;;;;;;5031903;28;20706;-80
2022/11/14 01:40:58;;;;;;;;;;;5.20;99.90;;;;;;5032795;28;19967;-81
2022/11/14 01:43:24;;;;;;;;;;;5.30;99.90;;;;;;4999495;28;19929;-80
2022/11/14 01:45:58;;;;;;;;;;;5.30;99.90;;;;;;5017658;28;20007;-80
2022/11/14 01:48:30;;;;;;;;;;;5.30;99.90;;;;;;5031519;28;19928;-80
2022/11/14 01:51:00;;;;;;;;;;;5.40;99.90;;;;;;5016902;28;20423;-80
2022/11/14 01:53:26;;;;;;;;;;;5.30;99.90;;;;;;5034822;28;19921;-80
2022/11/14 01:55:53;;;;;;;;;;;5.40;99.90;;;;;;5051433;28;19975;-80
2022/11/14 01:58:19;;;;;;;;;;;6.10;99.90;;;;;;5035194;28;20285;-80
2022/11/14 02:00:44;;;;;;;;;;;5.40;99.90;;;;;;5002868;28;19920;-80
2022/11/14 02:03:12;;;;;;;;;;;5.40;99.90;;;;;;5035758;28;19975;-80
2022/11/14 02:05:38;;;;;;;;;;;5.50;99.90;;;;;;5019722;28;20006;-80
2022/11/14 02:08:03;;;;;;;;;;;5.40;99.90;;;;;;5033992;28;20361;-80
2022/11/14 02:10:29;;;;;;;;;;;5.40;99.90;;;;;;5018492;28;19931;-80
2022/11/14 02:12:55;;;;;;;;;;;5.40;99.90;;;;;;5020622;28;19921;-80
2022/11/14 02:15:20;;;;;;;;;;;5.40;99.90;;;;;;5036273;28;19925;-79
2022/11/14 02:17:46;;;;;;;;;;;6.00;99.90;;;;;;5015374;28;19929;-80
2022/11/14 02:20:11;;;;;;;;;;;5.40;99.90;;;;;;5034894;28;19920;-80
2022/11/14 02:22:38;;;;;;;;;;;6.10;99.90;;;;;;5016392;28;20428;-80
2022/11/14 02:25:04;;;;;;;;;;;5.40;99.90;;;;;;5016714;28;19928;-79
2022/11/14 02:27:31;;;;;;;;;;;5.40;99.90;;;;;;5036151;28;19921;-80
2022/11/14 02:30:08;;;;;;;;;;;5.40;99.90;;;;;;5015326;28;19935;-80
2022/11/14 02:32:34;;;;;;;;;;;5.40;99.90;;;;;;5016755;28;19921;-80
2022/11/14 02:34:59;;;;;;;;;;;5.40;99.90;;;;;;5018062;28;19928;-81
2022/11/14 02:37:25;;;;;;;;;;;5.50;99.90;;;;;;5019222;28;19936;-80
2022/11/14 02:39:50;;;;;;;;;;;5.50;99.90;;;;;;5032727;28;19940;-80
2022/11/14 02:42:16;;;;;;;;;;;5.50;99.90;;;;;;5013512;28;19921;-80
2022/11/14 02:44:41;;;;;;;;;;;5.80;99.90;;;;;;5015292;28;19924;-80
2022/11/14 02:47:07;;;;;;;;;;;5.50;99.90;;;;;;5015771;28;19921;-81
2022/11/14 02:49:33;;;;;;;;;;;5.50;99.90;;;;;;5030471;28;20047;-80
2022/11/14 02:51:58;;;;;;;;;;;5.50;99.90;;;;;;5032377;28;20020;-79
2022/11/14 02:54:24;;;;;;;;;;;5.60;99.90;;;;;;5029956;28;20302;-80
2022/11/14 02:56:49;;;;;;;;;;;5.60;99.90;;;;;;5015485;28;19935;-80
2022/11/14 02:59:15;;;;;;;;;;;5.90;99.90;;;;;;5031413;28;19929;-81
2022/11/14 03:01:40;;;;;;;;;;;6.40;99.90;;;;;;5013994;28;19921;-81
2022/11/14 03:04:07;;;;;;;;;;;5.60;99.90;;;;;;5031348;28;20297;-80
2022/11/14 03:06:33;;;;;;;;;;;6.30;99.90;;;;;;5032980;28;19921;-80
2022/11/14 03:08:58;;;;;;;;;;;5.60;99.90;;;;;;5000707;28;19936;-80
2022/11/14 03:11:24;;;;;;;;;;;5.80;99.90;;;;;;5017966;28;19927;-79
2022/11/14 03:13:50;;;;;;;;;;;5.60;99.90;;;;;;5034060;28;19944;-81
2022/11/14 03:16:15;;;;;;;;;;;5.60;99.90;;;;;;5016278;28;20012;-80
2022/11/14 03:18:41;;;;;;;;;;;5.60;99.90;;;;;;5017295;28;20428;-80
2022/11/14 03:21:06;;;;;;;;;;;5.60;99.90;;;;;;5018880;28;19963;-80
2022/11/14 03:23:32;;;;;;;;;;;5.60;99.90;;;;;;5029176;28;19924;-78
2022/11/14 03:25:59;;;;;;;;;;;5.60;99.90;;;;;;5034659;28;19921;-80
2022/11/14 03:28:24;;;;;;;;;;;5.60;99.90;;;;;;5032641;28;19928;-80
2022/11/14 03:30:50;;;;;;;;;;;5.60;99.90;;;;;;4999563;28;19924;-80
2022/11/14 03:33:15;;;;;;;;;;;5.60;99.90;;;;;;5032703;28;19925;-80
2022/11/14 03:35:42;;;;;;;;;;;5.70;99.90;;;;;;4997636;28;19920;-80
2022/11/14 03:38:07;;;;;;;;;;;5.70;99.90;;;;;;5014853;28;19929;-80
2022/11/14 03:40:33;;;;;;;;;;;5.70;99.90;;;;;;5014601;28;19928;-80
2022/11/14 03:42:59;;;;;;;;;;;5.70;99.90;;;;;;5034291;28;20523;-80
2022/11/14 03:45:24;;;;;;;;;;;5.70;99.90;;;;;;5034652;28;19921;-80
2022/11/14 03:47:50;;;;;;;;;;;5.70;99.90;;;;;;5018615;28;20309;-80
2022/11/14 03:50:15;;;;;;;;;;;5.70;99.90;;;;;;5027318;28;20023;-80
2022/11/14 03:52:41;;;;;;;;;;;5.70;99.90;;;;;;5014792;28;19921;-81
2022/11/14 03:55:07;;;;;;;;;;;6.10;99.90;;;;;;5014542;28;19921;-80
2022/11/14 03:57:32;;;;;;;;;;;5.70;99.90;;;;;;5015787;28;20019;-80
2022/11/14 03:59:58;;;;;;;;;;;5.70;99.90;;;;;;4998934;28;19932;-80
2022/11/14 04:02:23;;;;;;;;;;;5.70;99.90;;;;;;5015177;28;19931;-80
2022/11/14 04:04:49;;;;;;;;;;;5.70;99.90;;;;;;4999430;28;19979;-80
2022/11/14 04:07:14;;;;;;;;;;;5.70;99.90;;;;;;5015964;28;20297;-80
2022/11/14 04:09:40;;;;;;;;;;;5.90;99.90;;;;;;5031679;28;19948;-79
2022/11/14 04:12:05;;;;;;;;;;;5.70;99.90;;;;;;5030773;28;19939;-80
2022/11/14 04:14:31;;;;;;;;;;;5.70;99.90;;;;;;5016032;28;19936;-80
2022/11/14 04:16:57;;;;;;;;;;;6.20;99.90;;;;;;5013984;28;19963;-80
2022/11/14 04:19:22;;;;;;;;;;;5.70;99.90;;;;;;4998373;28;20341;-80
2022/11/14 04:21:48;;;;;;;;;;;5.80;99.90;;;;;;5030330;28;19929;-81
2022/11/14 04:24:13;;;;;;;;;;;5.70;99.90;;;;;;5014520;28;19997;-80
2022/11/14 04:26:39;;;;;;;;;;;5.80;99.90;;;;;;5029344;28;19924;-81
2022/11/14 04:29:04;;;;;;;;;;;6.20;99.90;;;;;;4994022;28;19925;-79
2022/11/14 04:31:30;;;;;;;;;;;6.10;99.90;;;;;;5031347;28;19963;-80
2022/11/14 04:33:55;;;;;;;;;;;5.70;99.90;;;;;;5014815;28;19928;-80
2022/11/14 04:36:21;;;;;;;;;;;5.70;99.90;;;;;;5015575;28;19921;-80
2022/11/14 04:38:47;;;;;;;;;;;5.80;99.90;;;;;;5013383;28;20197;-80
2022/11/14 04:41:12;;;;;;;;;;;5.70;99.90;;;;;;5030097;28;20023;-80
2022/11/14 04:43:38;;;;;;;;;;;5.70;99.90;;;;;;5017672;28;20657;-80
2022/11/14 04:46:03;;;;;;;;;;;5.70;99.90;;;;;;5014737;28;19967;-80
2022/11/14 04:48:29;;;;;;;;;;;5.70;99.90;;;;;;4999667;28;19921;-80
2022/11/14 04:50:54;;;;;;;;;;;5.60;99.90;;;;;;4998625;28;19928;-80
2022/11/14 04:53:20;;;;;;;;;;;5.70;99.90;;;;;;5030643;28;20386;-79
2022/11/14 04:55:45;;;;;;;;;;;5.80;99.90;;;;;;5028426;28;20310;-80
2022/11/14 04:58:11;;;;;;;;;;;6.40;99.90;;;;;;5028604;28;19925;-80
2022/11/14 05:00:37;;;;;;;;;;;5.60;99.90;;;;;;5015655;28;20020;-80
2022/11/14 05:03:02;;;;;;;;;;;5.60;99.90;;;;;;5033752;28;19946;-80
2022/11/14 05:05:28;;;;;;;;;;;5.60;99.90;;;;;;5032611;28;20747;-79
2022/11/14 05:07:54;;;;;;;;;;;5.60;99.90;;;;;;5001429;28;19929;-80
2022/11/14 05:10:19;;;;;;;;;;;5.60;99.90;;;;;;5035973;28;19921;-80
2022/11/14 05:12:45;;;;;;;;;;;5.70;99.90;;;;;;5017692;28;20373;-79
2022/11/14 05:15:10;;;;;;;;;;;5.60;99.90;;;;;;5036355;28;20369;-79
2022/11/14 05:17:36;;;;;;;;;;;5.60;99.90;;;;;;5001877;28;19925;-80
2022/11/14 05:20:02;;;;;;;;;;;5.90;99.90;;;;;;5035421;28;20006;-79
2022/11/14 05:22:27;;;;;;;;;;;5.70;99.90;;;;;;5017475;28;19928;-79
2022/11/14 05:24:53;;;;;;;;;;;5.70;99.90;;;;;;5032774;28;19928;-79
2022/11/14 05:27:18;;;;;;;;;;;5.80;99.90;;;;;;5002267;28;19924;-79
2022/11/14 05:29:44;;;;;;;;;;;5.60;99.90;;;;;;5018736;28;19928;-79
2022/11/14 05:32:10;;;;;;;;;;;5.60;99.90;;;;;;5021472;28;19928;-80
2022/11/14 05:34:35;;;;;;;;;;;6.30;99.90;;;;;;5016783;28;19929;-79
2022/11/14 05:37:02;;;;;;;;;;;5.70;99.90;;;;;;5016692;28;20362;-79
2022/11/14 05:39:28;;;;;;;;;;;6.10;99.90;;;;;;5002618;28;19970;-79
2022/11/14 05:41:53;;;;;;;;;;;7.30;99.90;;;;;;5036386;28;19921;-80
2022/11/14 05:44:19;;;;;;;;;;;5.50;99.90;;;;;;5002546;28;19929;-79
2022/11/14 05:46:45;;;;;;;;;;;5.50;99.90;;;;;;5002683;28;19947;-79
2022/11/14 05:49:10;;;;;;;;;;;5.60;99.90;;;;;;5032309;28;20460;-79
2022/11/14 05:51:36;;;;;;;;;;;5.50;99.90;;;;;;5001642;28;19927;-79
2022/11/14 05:54:01;;;;;;;;;;;5.50;99.90;;;;;;5018660;28;19921;-78
2022/11/14 05:56:27;;;;;;;;;;;7.50;99.90;;;;;;5015745;28;20376;-80
2022/11/14 05:58:53;;;;;;;;;;;5.50;99.90;;;;;;5034546;28;20032;-79
2022/11/14 06:01:18;;;;;;;;;;;5.50;99.90;;;;;;5034393;28;19967;-78
2022/11/14 06:03:45;;;;;;;;;;;5.50;99.90;;;;;;5015298;28;20471;-79
2022/11/14 06:06:12;;;;;;;;;;;5.50;99.90;;;;;;5018761;28;19983;-79
2022/11/14 06:08:38;;;;;;;;;;;5.50;99.90;;;;;;5019041;28;19995;-79
2022/11/14 06:11:08;;;;;;;;;;;5.40;99.90;;;;;;5032102;28;20307;-78
2022/11/14 06:13:34;;;;;;;;;;;5.40;99.90;;;;;;5047566;28;19927;-79
2022/11/14 06:16:04;;;;;;;;;;;5.60;99.90;;;;;;5027880;28;19920;-79
2022/11/14 06:18:32;;;;;;;;;;;5.40;99.90;;;;;;5025575;28;19929;-78
2022/11/14 06:21:01;;;;;;;;;;;5.50;99.90;;;;;;5024409;28;19921;-79
2022/11/14 06:23:27;;;;;;;;;;;5.40;99.90;;;;;;5013184;28;19928;-79
2022/11/14 06:25:57;;;;;;;;;;;5.40;99.90;;;;;;5026558;28;19929;-79
2022/11/14 06:28:22;;;;;;;;;;;5.30;99.90;;;;;;5012996;28;19929;-79
2022/11/14 06:30:48;;;;;;;;;;;5.30;99.90;;;;;;5027024;28;19921;-79
2022/11/14 06:33:13;;;;;;;;;;;5.30;99.90;;;;;;5012801;28;19928;-79
2022/11/14 06:35:39;;;;;;;;;;;5.30;99.90;;;;;;5029668;28;19932;-79
2022/11/14 06:38:05;;;;;;;;;;;5.00;99.90;;;;;;5027891;28;20426;-79
2022/11/14 06:40:30;;;;;;;;;;;5.70;99.90;;;;;;5014312;28;20018;-79
2022/11/14 06:42:56;;;;;;;;;;;5.40;99.90;;;;;;5013193;28;19925;-79
2022/11/14 06:45:22;;;;;;;;;;;5.20;99.90;;;;;;5026886;28;20476;-79
2022/11/14 06:47:47;;;;;;;;;;;5.20;99.90;;;;;;5012886;28;20137;-79
2022/11/14 06:50:13;;;;;;;;;;;5.70;99.90;;;;;;5010864;28;19928;-79
2022/11/14 06:52:38;;;;;;;;;;;5.10;99.90;;;;;;5010625;28;19920;-79
2022/11/14 06:55:04;;;;;;;;;;;5.10;99.90;;;;;;5014861;28;19931;-79
2022/11/14 06:57:30;;;;;;;;;;;5.00;99.90;;;;;;5026374;28;20447;-79
2022/11/14 06:59:55;;;;;;;;;;;5.20;99.90;;;;;;5011650;28;19927;-79
2022/11/14 07:02:21;;;;;;;;;;;4.90;99.90;;;;;;5011878;28;20001;-79
2022/11/14 07:04:46;;;;;;;;;;;4.90;99.90;;;;;;5026046;28;20293;-79
2022/11/14 07:07:12;;;;;;;;;;;5.90;99.90;;;;;;5025669;28;20019;-79
2022/11/14 07:09:38;;;;;;;;;;;5.60;99.90;;;;;;5028822;28;19929;-79
2022/11/14 07:12:03;;;;;;;;;;;5.10;99.90;;;;;;5024909;28;20006;-79
2022/11/14 07:14:31;;;;;;;;;;;4.80;99.90;;;;;;5023150;28;20584;-79
2022/11/14 07:16:57;;;;;;;;;;;4.90;99.90;;;;;;5023507;28;19921;-78
2022/11/14 07:19:22;;;;;;;;;;;4.70;99.90;;;;;;5023449;28;20007;-78
2022/11/14 07:21:48;;;;;;;;;;;5.70;99.90;;;;;;4989647;28;19921;-78
2022/11/14 07:24:14;;;;;;;;;;;5.20;99.90;;;;;;4985166;28;19936;-79
2022/11/14 07:26:39;;;;;;;;;;;4.70;99.90;;;;;;5007297;28;19925;-78
2022/11/14 07:29:05;;;;;;;;;;;4.70;99.90;;;;;;5009294;28;20302;-79
2022/11/14 07:31:30;;;;;;;;;;;4.70;99.90;;;;;;4974371;28;19921;-78
2022/11/14 07:33:56;;;;;;;;;;;4.70;99.90;;;;;;4989494;28;20451;-78
2022/11/14 07:36:22;;;;;;;;;;;4.70;99.90;;;;;;4990799;28;19936;-79
2022/11/14 07:38:47;;;;;;;;;;;4.80;99.90;;;;;;5007014;28;20301;-79
2022/11/14 07:41:14;;;;;;;;;;;4.80;99.90;;;;;;4969506;28;19987;-79
2022/11/14 07:43:40;;;;;;;;;;;5.00;99.90;;;;;;5006736;28;20773;-79
2022/11/14 07:46:06;;;;;;;;;;;4.80;99.90;;;;;;5005695;28;20035;-78
2022/11/14 07:48:32;;;;;;;;;;;4.80;99.90;;;;;;5020046;28;20427;-79
2022/11/14 07:50:59;;;;;;;;;;;4.80;99.90;;;;;;4995998;28;20386;-77
2022/11/14 07:53:25;;;;;;;;;;;4.80;99.90;;;;;;4992989;28;19929;-77
2022/11/14 07:55:50;;;;;;;;;;;4.80;99.90;;;;;;4978077;28;19975;-77
2022/11/14 07:58:16;;;;;;;;;;;4.90;99.90;;;;;;4969689;28;20283;-77
2022/11/14 08:00:41;;;;;;;;;;;4.90;99.90;;;;;;4994773;28;19929;-77
2022/11/14 08:03:07;;;;;;;;;;;4.90;99.90;;;;;;4994866;28;20397;-78
2022/11/14 08:05:33;;;;;;;;;;;4.90;99.90;;;;;;4994960;28;19979;-78
2022/11/14 08:07:58;;;;;;;;;;;5.50;99.90;;;;;;5014654;28;20010;-78
2022/11/14 08:10:24;;;;;;;;;;;5.10;99.90;;;;;;4968232;28;20448;-78
2022/11/14 08:13:16;;;;;;;;;;;5.10;99.90;;;;;;4960540;28;20426;-78
2022/11/14 08:15:41;;;;;;;;;;;5.20;99.90;;;;;;4992836;28;19970;-78
2022/11/14 08:18:07;;;;;;;;;;;6.60;99.90;;;;;;4988802;28;20449;-78
2022/11/14 08:20:32;;;;;;;;;;;5.80;99.90;;;;;;4994509;28;19925;-78
2022/11/14 08:23:02;;;;;;;;;;;5.40;99.90;;;;;;4978852;28;19925;-78
2022/11/14 08:25:28;;;;;;;;;;;5.40;99.90;;;;;;4985528;28;20414;-78
2022/11/14 08:27:53;;;;;;;;;;;5.50;99.90;;;;;;4994917;28;20007;-78
2022/11/14 08:30:19;;;;;;;;;;;5.60;99.90;;;;;;4977575;28;19929;-79
2022/11/14 08:32:45;;;;;;;;;;;6.20;99.90;;;;;;4995293;28;19987;-78
2022/11/14 08:35:10;;;;;;;;;;;5.70;99.90;;;;;;4960499;28;20378;-79
2022/11/14 08:37:36;;;;;;;;;;;5.70;99.90;;;;;;4978847;28;19933;-79
2022/11/14 08:40:01;;;;;;;;;;;6.10;99.90;;;;;;4968219;28;19937;-80
2022/11/14 08:42:27;;;;;;;;;;;5.80;99.90;;;;;;4977678;28;19939;-80
2022/11/14 08:44:53;;;;;;;;;;;5.90;99.90;;;;;;4994607;28;20059;-78
2022/11/14 08:47:18;;;;;;;;;;;6.00;99.90;;;;;;4976292;28;19929;-80
2022/11/14 08:49:44;;;;;;;;;;;6.30;99.90;;;;;;4967148;28;20454;-80
2022/11/14 08:52:09;;;;;;;;;;;6.80;99.90;;;;;;5009401;28;19921;-79
2022/11/14 08:54:35;;;;;;;;;;;7.20;99.90;;;;;;4975849;28;19921;-78
2022/11/14 08:57:01;;;;;;;;;;;7.50;99.90;;;;;;4977136;28;20410;-78
2022/11/14 08:59:26;;;;;;;;;;;8.00;99.90;;;;;;4979412;28;19931;-80
2022/11/14 09:01:52;;;;;;;;;;;8.40;99.90;;;;;;5010485;28;20201;-80
2022/11/14 09:04:17;;;;;;;;;;;8.80;99.90;;;;;;4995133;28;20083;-80
2022/11/14 09:06:45;;;;;;;;;;;9.20;99.90;;;;;;4994194;28;20546;-80
2022/11/14 09:09:10;;;;;;;;;;;9.50;99.90;;;;;;4960943;28;19929;-81
2022/11/14 09:11:36;;;;;;;;;;;9.50;99.90;;;;;;4965433;28;19928;-81
2022/11/14 09:14:02;;;;;;;;;;;9.20;99.90;;;;;;4994405;28;19933;-80
2022/11/14 09:16:27;;;;;;;;;;;8.60;99.90;;;;;;5012665;28;19964;-80
2022/11/14 09:18:53;;;;;;;;;;;8.10;99.90;;;;;;4994744;28;20071;-79
2022/11/14 09:21:18;;;;;;;;;;;7.80;99.90;;;;;;5012055;28;20068;-81
2022/11/14 09:23:45;;;;;;;;;;;7.80;99.90;;;;;;4975974;28;19929;-81
2022/11/14 09:26:11;;;;;;;;;;;7.40;99.90;;;;;;4976978;28;19937;-82
2022/11/14 09:28:36;;;;;;;;;;;7.30;99.90;;;;;;4977245;28;19921;-82
2022/11/14 09:31:06;;;;;;;;;;;7.20;99.90;;;;;;4978100;28;19925;-82
2022/11/14 09:33:32;;;;;;;;;;;7.10;99.90;;;;;;4978886;28;19978;-82
2022/11/14 09:35:59;;;;;;;;;;;7.00;99.90;;;;;;4995442;28;20091;-81
2022/11/14 09:38:24;;;;;;;;;;;6.90;99.90;;;;;;4978926;28;19933;-80
2022/11/14 09:40:50;;;;;;;;;;;6.80;99.90;;;;;;4979688;28;19932;-81
2022/11/14 09:43:15;;;;;;;;;;;6.80;99.90;;;;;;4995581;28;20015;-81
2022/11/14 09:45:42;;;;;;;;;;;6.70;99.90;;;;;;4980161;28;19925;-79
2022/11/14 09:48:17;;;;;;;;;;;6.70;99.90;;;;;;4997145;28;19925;-79
2022/11/14 09:50:45;;;;;;;;;;;6.70;99.90;;;;;;4980255;28;19931;-79
2022/11/14 09:53:18;;;;;;;;;;;6.80;99.90;;;;;;5017036;28;19925;-79
2022/11/14 09:55:44;;;;;;;;;;;6.90;99.90;;;;;;4978740;28;19929;-79
2022/11/14 09:58:19;;;;;;;;;;;7.70;99.90;;;;;;5017585;28;19956;-79
2022/11/14 10:00:57;;;;;;;;;;;7.10;99.90;;;;;;4981057;28;19932;-79
2022/11/14 10:03:29;;;;;;;;;;;7.10;99.90;;;;;;4981121;28;19991;-79
2022/11/14 10:06:08;;;;;;;;;;;7.00;99.90;;;;;;5001315;28;19921;-79
2022/11/14 10:08:52;;;;;;;;;;;7.00;99.90;;;;;;4998728;28;19934;-78
2022/11/14 10:11:21;;;;;;;;;;;6.90;99.90;;;;;;5014095;28;19933;-78
2022/11/14 10:13:56;;;;;;;;;;;6.90;99.90;;;;;;4998457;28;19929;-78
2022/11/14 10:16:30;;;;;;;;;;;6.80;99.90;;;;;;5013355;28;19957;-80
2022/11/14 10:19:01;;;;;;;;;;;6.80;99.90;;;;;;4997040;28;19933;-79
2022/11/14 10:21:27;;;;;;;;;;;6.80;99.90;;;;;;4982454;28;19928;-79
2022/11/14 10:24:11;;;;;;;;;;;6.80;99.90;;;;;;5014864;28;20043;-81
2022/11/14 10:26:41;;;;;;;;;;;6.80;99.90;;;;;;4998568;28;20031;-81
2022/11/14 10:29:21;;;;;;;;;;;6.80;99.90;;;;;;4980332;28;19929;-79
2022/11/14 10:31:58;;;;;;;;;;;6.90;99.90;;;;;;4997505;28;20405;-80
2022/11/14 10:34:38;;;;;;;;;;;7.00;99.90;;;;;;4979177;28;20623;-81
2022/11/14 10:37:10;;;;;;;;;;;7.00;99.90;;;;;;4993693;28;19929;-81
2022/11/14 10:39:39;;;;;;;;;;;7.00;99.90;;;;;;4980968;28;20421;-82
2022/11/14 10:42:24;;;;;;;;;;;7.30;99.90;;;;;;4980115;28;19965;-80
2022/11/14 10:44:51;;;;;;;;;;;7.00;99.90;;;;;;5017232;28;19936;-79
2022/11/14 10:47:19;;;;;;;;;;;7.10;99.90;;;;;;4995596;28;20242;-79
2022/11/14 10:49:45;;;;;;;;;;;7.50;99.90;;;;;;4993994;28;20545;-80
2022/11/14 10:52:17;;;;;;;;;;;7.30;99.90;;;;;;4998121;28;19922;-77
2022/11/14 10:55:05;;;;;;;;;;;7.30;99.90;;;;;;5000561;28;19940;-79
2022/11/14 10:57:31;;;;;;;;;;;7.30;99.90;;;;;;5000779;28;19972;-79
2022/11/14 10:59:56;;;;;;;;;;;7.30;99.90;;;;;;4995000;28;19921;-79
2022/11/14 11:02:22;;;;;;;;;;;7.30;99.90;;;;;;5017533;28;19921;-79
2022/11/14 11:04:48;;;;;;;;;;;7.40;99.90;;;;;;4977027;28;19948;-79
2022/11/14 11:12:51;;;;;;;;;;;7.40;99.90;;;;;;5012005;28;20600;-77
2022/11/14 11:15:25;;;;;;;;;;;7.40;99.90;;;;;;4994485;28;19933;-77
2022/11/14 11:18:01;;;;;;;;;;;7.40;99.90;;;;;;5012040;28;21125;-77
2022/11/14 11:20:37;;;;;;;;;;;7.40;99.90;;;;;;4978823;28;19936;-78
2022/11/14 11:23:06;;;;;;;;;;;8.50;99.90;;;;;;4993800;28;19935;-77
2022/11/14 11:25:32;;;;;;;;;;;7.50;99.90;;;;;;4975927;28;19975;-77
2022/11/14 11:28:12;;;;;;;;;;;7.40;99.90;;;;;;4979149;28;20691;-77
2022/11/14 11:30:38;;;;;;;;;;;7.50;99.90;;;;;;4993212;28;19929;-77
2022/11/14 11:33:14;;;;;;;;;;;7.50;99.90;;;;;;4994121;28;20506;-77
2022/11/14 11:35:40;;;;;;;;;;;7.50;99.90;;;;;;4982172;28;19932;-77
2022/11/14 11:38:08;;;;;;;;;;;7.60;99.90;;;;;;4976243;28;19929;-77
2022/11/14 11:40:33;;;;;;;;;;;7.60;99.90;;;;;;4991576;28;19925;-77
2022/11/14 11:43:07;;;;;;;;;;;7.60;99.90;;;;;;4991987;28;19921;-77
2022/11/14 11:45:33;;;;;;;;;;;7.70;99.90;;;;;;5018435;28;20015;-81
2022/11/14 11:48:18;;;;;;;;;;;7.70;99.90;;;;;;4992971;28;20004;-80
2022/11/14 11:50:44;;;;;;;;;;;7.70;99.90;;;;;;5021303;28;19952;-79
2022/11/14 11:53:30;;;;;;;;;;;9.40;99.90;;;;;;4995113;28;19921;-79
2022/11/14 11:55:58;;;;;;;;;;;7.80;99.90;;;;;;4985255;28;20703;-79
2022/11/14 11:58:30;;;;;;;;;;;8.00;99.90;;;;;;4982917;28;20599;-80
2022/11/14 12:00:55;;;;;;;;;;;8.00;99.90;;;;;;5014679;28;19929;-80
2022/11/14 12:03:25;;;;;;;;;;;8.20;99.90;;;;;;4979571;28;19952;-80
2022/11/14 12:06:10;;;;;;;;;;;8.30;99.90;;;;;;4980747;28;20294;-81
2022/11/14 12:08:38;;;;;;;;;;;8.50;99.90;;;;;;4992094;28;20388;-80
2022/11/14 12:11:08;;;;;;;;;;;8.70;99.90;;;;;;4994663;28;19921;-80
2022/11/14 12:13:59;;;;;;;;;;;8.80;99.90;;;;;;5003669;28;20002;-80
2022/11/14 12:16:24;;;;;;;;;;;8.80;99.90;;;;;;5010007;28;20385;-80
2022/11/14 12:19:06;;;;;;;;;;;9.00;99.90;;;;;;5013580;28;19983;-80
2022/11/14 12:21:51;;;;;;;;;;;9.00;99.90;;;;;;5011763;28;19945;-80
2022/11/14 12:24:26;;;;;;;;;;;9.10;99.90;;;;;;4997211;28;20358;-80
2022/11/14 12:26:52;;;;;;;;;;;9.20;99.90;;;;;;5013657;28;19921;-80
2022/11/14 12:29:30;;;;;;;;;;;9.30;99.90;;;;;;5012091;28;20016;-80
2022/11/14 12:32:01;;;;;;;;;;;9.40;99.90;;;;;;5032545;28;19940;-80
2022/11/14 12:34:31;;;;;;;;;;;9.50;99.90;;;;;;5042187;28;19929;-80
2022/11/14 12:36:57;;;;;;;;;;;9.70;99.90;;;;;;5020604;28;20070;-80
2022/11/14 12:39:24;;;;;;;;;;;9.90;99.90;;;;;;5011999;28;20470;-80
2022/11/14 12:41:49;;;;;;;;;;;9.80;99.90;;;;;;4985687;28;19969;-79
2022/11/14 12:44:30;;;;;;;;;;;9.80;99.90;;;;;;5011923;28;20566;-80
2022/11/14 12:47:02;;;;;;;;;;;9.80;99.90;;;;;;5009985;28;19967;-79
2022/11/14 12:49:45;;;;;;;;;;;9.70;99.90;;;;;;4999004;28;19928;-79
2022/11/14 12:52:30;;;;;;;;;;;9.80;99.90;;;;;;5026535;28;19937;-80
2022/11/14 12:54:55;;;;;;;;;;;9.90;99.90;;;;;;5011544;28;20362;-78
2022/11/14 12:57:48;;;;;;;;;;;10.00;99.90;;;;;;5020158;28;19925;-80
2022/11/14 13:00:15;;;;;;;;;;;10.00;99.90;;;;;;4998793;28;20386;-80
2022/11/14 13:03:00;;;;;;;;;;;9.90;99.90;;;;;;5015539;28;19921;-78
2022/11/14 13:05:45;;;;;;;;;;;10.00;99.90;;;;;;5003148;28;19988;-79
2022/11/14 13:08:11;;;;;;;;;;;9.90;99.90;;;;;;5014487;28;19921;-79
2022/11/14 13:10:37;;;;;;;;;;;10.00;99.90;;;;;;5016612;28;19922;-79
2022/11/14 13:22:02;;;;;;;;;;;9.90;99.90;;;;;;5017133;28;19944;-79
2022/11/14 13:24:47;;;;;;;;;;;9.90;99.90;;;;;;5021341;28;19921;-78
2022/11/14 13:27:24;;;;;;;;;;;9.80;99.90;;;;;;5020767;28;19925;-78
2022/11/14 13:29:50;;;;;;;;;;;9.80;99.90;;;;;;5019565;28;19921;-78
2022/11/14 13:32:34;;;;;;;;;;;9.80;99.90;;;;;;5021166;28;20004;-78
2022/11/14 13:35:04;;;;;;;;;;;9.80;99.90;;;;;;5003827;28;19921;-78
2022/11/14 13:37:32;;;;;;;;;;;9.60;99.90;;;;;;5005121;28;19936;-78
2022/11/14 13:40:19;;;;;;;;;;;9.60;99.90;;;;;;5013554;28;19976;-79
2022/11/14 13:42:48;;;;;;;;;;;9.60;99.90;;;;;;5014638;28;19922;-79
2022/11/14 13:45:19;;;;;;;;;;;9.50;99.90;;;;;;5003196;28;19964;-79
2022/11/14 13:48:02;;;;;;;;;;;9.50;99.90;;;;;;5013815;28;19921;-79
2022/11/14 13:50:39;;;;;;;;;;;9.40;99.90;;;;;;5018316;28;19927;-79
2022/11/14 13:53:23;;;;;;;;;;;9.40;99.90;;;;;;5016206;28;19921;-79
2022/11/14 13:55:58;;;;;;;;;;;9.40;99.90;;;;;;4997988;28;19996;-78
2022/11/14 13:58:23;;;;;;;;;;;9.40;99.90;;;;;;4996616;28;20000;-78
2022/11/14 14:01:01;;;;;;;;;;;9.30;99.90;;;;;;4985140;28;20724;-75
2022/11/14 14:03:34;;;;;;;;;;;9.20;99.90;;;;;;4998452;28;19925;-79
2022/11/14 14:06:11;;;;;;;;;;;9.20;99.90;;;;;;5002931;28;19944;-78
2022/11/14 14:08:46;;;;;;;;;;;9.20;99.90;;;;;;5001173;28;21139;-78
2022/11/14 14:11:20;;;;;;;;;;;9.20;99.90;;;;;;5004452;28;20294;-78
2022/11/14 14:13:46;;;;;;;;;;;9.10;99.90;;;;;;5004240;28;19991;-78
2022/11/14 14:16:17;;;;;;;;;;;9.10;99.90;;;;;;4978769;28;20045;-78
2022/11/14 14:18:47;;;;;;;;;;;9.10;99.90;;;;;;5000035;28;20629;-78
2022/11/14 14:21:32;;;;;;;;;;;9.00;99.90;;;;;;4998881;28;19929;-78
2022/11/14 14:24:03;;;;;;;;;;;9.00;99.90;;;;;;4984142;28;19986;-78
2022/11/14 14:26:54;;;;;;;;;;;8.90;99.90;;;;;;5003236;28;20355;-78
2022/11/14 14:29:39;;;;;;;;;;;8.90;99.90;;;;;;5000934;28;19928;-78
2022/11/14 14:32:05;;;;;;;;;;;8.80;99.90;;;;;;5004444;28;19931;-78
2022/11/14 14:34:31;;;;;;;;;;;8.70;99.90;;;;;;5019966;28;19951;-78
2022/11/14 14:36:57;;;;;;;;;;;8.70;99.90;;;;;;4983094;28;20615;-78
2022/11/14 14:39:24;;;;;;;;;;;8.70;99.90;;;;;;4995793;28;19961;-78
2022/11/14 14:41:50;;;;;;;;;;;8.60;99.90;;;;;;4991775;28;21088;-78
2022/11/14 14:44:16;;;;;;;;;;;8.50;99.90;;;;;;4998236;28;19965;-78
2022/11/14 14:46:41;;;;;;;;;;;8.50;99.90;;;;;;5001750;28;19988;-78
2022/11/14 14:49:07;;;;;;;;;;;8.50;99.90;;;;;;4999234;28;20008;-78
2022/11/14 14:51:34;;;;;;;;;;;8.40;99.90;;;;;;4967332;28;20181;-78